Time;durP1;ratioP1;P1;durP2;ratioP2;P2;SDS_P1;SDS_P2;PMS_P1;PMS_P2;Temp;Humidity;BMP_temperature;BMP_pressure;BME280_temperature;BME280_humidity;BME280_pressure;Samples;Min_cycle;Max_cycle;Signal;HPM_P1;HPM_P2
2022/07/10 00:00:38;;;;;;;0.00;0.00;;;20.30;61.20;;;;;;5134089;27;20110;-77
2022/07/10 00:03:05;;;;;;;0.00;0.00;;;20.40;62.30;;;;;;5134666;27;20144;-77
2022/07/10 00:05:34;;;;;;;0.00;0.00;;;20.50;64.40;;;;;;5134028;27;20030;-77
2022/07/10 00:08:00;;;;;;;0.00;0.00;;;20.50;65.20;;;;;;5134613;27;20592;-76
2022/07/10 00:10:28;;;;;;;0.00;0.00;;;20.50;64.10;;;;;;5134150;27;20062;-78
2022/07/10 00:12:54;;;;;;;0.00;0.00;;;20.50;64.70;;;;;;5134242;27;20038;-77
2022/07/10 00:15:21;;;;;;;0.00;0.00;;;20.30;66.30;;;;;;5133815;27;20046;-77
2022/07/10 00:17:47;;;;;;;0.00;0.00;;;20.40;66.30;;;;;;5133990;27;20087;-76
2022/07/10 00:20:14;;;;;;;0.00;0.00;;;20.30;66.00;;;;;;5134080;28;20527;-77
2022/07/10 00:22:41;;;;;;;0.00;0.00;;;20.50;63.30;;;;;;5134449;28;20031;-78
2022/07/10 00:25:10;;;;;;;0.00;0.00;;;20.60;64.20;;;;;;5134039;28;20015;-77
2022/07/10 00:27:35;;;;;;;0.00;0.00;;;20.80;65.70;;;;;;5133693;28;20076;-77
2022/07/10 00:30:02;;;;;;;0.00;0.00;;;20.80;63.60;;;;;;5134391;28;20027;-76
2022/07/10 00:32:28;;;;;;;0.00;0.00;;;20.80;64.60;;;;;;5133684;28;20031;-76
2022/07/10 00:34:54;;;;;;;0.00;0.00;;;20.90;66.00;;;;;;5134128;28;20433;-76
2022/07/10 00:37:21;;;;;;;0.00;0.00;;;20.80;67.60;;;;;;5134667;28;20550;-77
2022/07/10 00:39:48;;;;;;;0.00;0.00;;;20.80;66.70;;;;;;5133552;28;20114;-76
2022/07/10 00:42:15;;;;;;;0.00;0.00;;;21.00;66.70;;;;;;5133904;28;20414;-77
2022/07/10 00:44:42;;;;;;;0.00;0.00;;;21.50;65.30;;;;;;5133935;28;20023;-76
2022/07/10 00:47:10;;;;;;;0.00;0.00;;;22.10;64.10;;;;;;5132973;28;20019;-76
2022/07/10 00:49:38;;;;;;;0.85;0.85;;;22.40;62.10;;;;;;5136838;27;20099;-76
2022/07/10 00:52:07;;;;;;;0.00;0.00;;;23.00;59.80;;;;;;5137260;27;20023;-77
2022/07/10 00:54:34;;;;;;;0.00;0.00;;;23.50;58.90;;;;;;5137436;27;20043;-77
2022/07/10 00:57:03;;;;;;;0.57;0.57;;;24.10;57.20;;;;;;5137882;27;20034;-76
2022/07/10 00:59:29;;;;;;;0.20;0.20;;;23.70;56.60;;;;;;5119584;27;20039;-76
2022/07/10 01:01:55;;;;;;;0.28;0.28;;;23.60;57.50;;;;;;5125634;27;20581;-76
2022/07/10 01:04:21;;;;;;;0.40;0.40;;;23.70;58.20;;;;;;5126218;27;20680;-76
2022/07/10 01:06:48;;;;;;;0.00;0.00;;;23.70;59.50;;;;;;5129926;27;20023;-77
2022/07/10 01:09:14;;;;;;;0.20;0.20;;;24.20;58.90;;;;;;5137400;27;20023;-77
2022/07/10 01:11:40;;;;;;;4.20;4.00;;;23.90;59.40;;;;;;5136855;27;20272;-77
2022/07/10 01:14:06;;;;;;;0.00;0.00;;;24.50;58.40;;;;;;5145954;27;20472;-77
2022/07/10 01:16:32;;;;;;;0.00;0.00;;;24.70;58.10;;;;;;5137026;27;20062;-77
2022/07/10 01:18:59;;;;;;;0.00;0.00;;;26.10;54.70;;;;;;5134818;27;20088;-77
2022/07/10 01:21:32;;;;;;;0.00;0.00;;;27.10;52.70;;;;;;5134418;27;20031;-77
2022/07/10 01:23:59;;;;;;;0.10;0.10;;;26.00;54.60;;;;;;5144894;27;20022;-76
2022/07/10 01:26:26;;;;;;;0.00;0.00;;;26.20;52.80;;;;;;5137614;27;20049;-76
2022/07/10 01:28:53;;;;;;;6.88;6.53;;;27.20;51.20;;;;;;5120694;27;20035;-76
2022/07/10 01:31:23;;;;;;;0.00;0.00;;;27.30;51.00;;;;;;5131840;27;20428;-76
2022/07/10 01:33:50;;;;;;;10.57;9.95;;;27.30;50.50;;;;;;5136635;27;20028;-77
2022/07/10 01:36:17;;;;;;;0.00;0.00;;;26.80;51.70;;;;;;5135149;27;20463;-76
2022/07/10 01:38:43;;;;;;;0.00;0.00;;;25.80;52.80;;;;;;5134677;27;20072;-76
2022/07/10 01:41:09;;;;;;;0.25;0.25;;;26.50;52.10;;;;;;5135035;27;20023;-77
2022/07/10 01:43:42;;;;;;;0.00;0.00;;;26.80;51.00;;;;;;5136289;27;20037;-77
2022/07/10 01:46:10;;;;;;;0.00;0.00;;;27.20;51.80;;;;;;5135002;27;20072;-77
2022/07/10 01:48:40;;;;;;;0.00;0.00;;;27.60;50.60;;;;;;5132853;27;20030;-77
2022/07/10 01:51:08;;;;;;;0.00;0.00;;;28.10;49.70;;;;;;5134414;27;20041;-77
2022/07/10 01:53:34;;;;;;;0.00;0.00;;;28.70;48.10;;;;;;5134392;27;20023;-76
2022/07/10 01:56:09;;;;;;;0.00;0.00;;;29.10;46.90;;;;;;5135315;27;20101;-76
2022/07/10 01:58:35;;;;;;;11.38;10.52;;;29.70;43.40;;;;;;5134859;27;20047;-76
2022/07/10 02:01:02;;;;;;;0.00;0.00;;;30.20;43.80;;;;;;5133205;27;20026;-75
2022/07/10 02:06:12;;;;;;;0.20;0.20;;;30.40;43.50;;;;;;5130958;27;20080;-76
2022/07/10 02:08:38;;;;;;;0.00;0.00;;;31.00;40.90;;;;;;5135129;27;20047;-76
2022/07/10 02:11:05;;;;;;;0.00;0.00;;;30.90;40.40;;;;;;5116075;27;20031;-77
2022/07/10 02:13:31;;;;;;;10.77;0.43;;;30.90;39.90;;;;;;5133215;27;20027;-77
2022/07/10 02:15:58;;;;;;;4.13;1.00;;;31.80;37.10;;;;;;5138681;27;20019;-77
2022/07/10 02:18:24;;;;;;;0.70;0.70;;;32.20;36.70;;;;;;5130239;27;20026;-76
2022/07/10 02:20:51;;;;;;;0.00;0.00;;;32.30;36.40;;;;;;5134083;27;20030;-76
2022/07/10 02:23:17;;;;;;;0.00;0.00;;;31.20;36.90;;;;;;5135770;27;20023;-76
2022/07/10 02:25:44;;;;;;;0.00;0.00;;;31.70;36.70;;;;;;5134926;27;20084;-77
2022/07/10 02:28:10;;;;;;;0.00;0.00;;;31.80;36.40;;;;;;5135056;27;20031;-76
2022/07/10 02:30:36;;;;;;;0.35;0.35;;;32.40;35.00;;;;;;5136251;27;20031;-76
2022/07/10 02:33:03;;;;;;;0.00;0.00;;;33.00;34.60;;;;;;5138535;27;20066;-76
2022/07/10 02:35:29;;;;;;;5.82;4.55;;;30.90;37.20;;;;;;5134550;27;20114;-76
2022/07/10 02:37:55;;;;;;;1.30;0.55;;;31.30;36.50;;;;;;5133330;27;20031;-77
2022/07/10 02:40:21;;;;;;;1.02;0.55;;;30.80;37.90;;;;;;5133456;27;20039;-77
2022/07/10 02:42:47;;;;;;;0.00;0.00;;;31.20;36.80;;;;;;5129224;27;20027;-77
2022/07/10 02:45:13;;;;;;;0.00;0.00;;;30.70;36.80;;;;;;5132783;27;20372;-76
2022/07/10 02:47:39;;;;;;;2.72;0.47;;;30.30;38.30;;;;;;5135181;27;20257;-77
2022/07/10 02:50:07;;;;;;;2.30;0.47;;;30.00;37.10;;;;;;5134501;27;20031;-77
2022/07/10 02:52:33;;;;;;;0.00;0.00;;;30.20;37.50;;;;;;5131853;27;20550;-76
2022/07/10 02:54:59;;;;;;;0.55;0.55;;;31.00;36.80;;;;;;5119043;27;20395;-76
2022/07/10 02:57:25;;;;;;;0.00;0.00;;;31.20;36.20;;;;;;5130534;27;20056;-76
2022/07/10 02:59:51;;;;;;;0.00;0.00;;;30.80;36.90;;;;;;5132251;27;20039;-77
2022/07/10 03:02:17;;;;;;;4.07;1.08;;;32.00;34.90;;;;;;5133031;27;20284;-77
2022/07/10 03:04:43;;;;;;;0.08;0.08;;;32.90;34.50;;;;;;5132829;27;20402;-76
2022/07/10 03:07:09;;;;;;;0.00;0.00;;;31.60;35.40;;;;;;5133902;27;20144;-77
2022/07/10 03:09:35;;;;;;;2.22;2.13;;;32.20;35.40;;;;;;5130895;27;20122;-77
2022/07/10 03:12:01;;;;;;;0.45;0.20;;;32.90;34.30;;;;;;5128917;27;20038;-77
2022/07/10 03:14:27;;;;;;;2.70;2.50;;;33.50;34.50;;;;;;5132797;27;20031;-77
2022/07/10 03:16:53;;;;;;;0.00;0.00;;;32.80;35.30;;;;;;5135189;27;20033;-77
2022/07/10 03:19:19;;;;;;;0.00;0.00;;;33.40;34.40;;;;;;5124496;27;20464;-77
2022/07/10 03:21:45;;;;;;;0.00;0.00;;;34.00;33.60;;;;;;5134378;27;20062;-77
2022/07/10 03:24:12;;;;;;;0.30;0.30;;;33.30;34.40;;;;;;5132385;27;20026;-77
2022/07/10 03:26:37;;;;;;;0.30;0.30;;;33.40;33.90;;;;;;5132937;27;20111;-76
2022/07/10 03:29:04;;;;;;;2.35;0.88;;;32.10;36.10;;;;;;5132722;27;20114;-77
2022/07/10 03:31:30;;;;;;;0.00;0.00;;;31.90;36.90;;;;;;5131985;27;20084;-77
2022/07/10 03:33:56;;;;;;;0.00;0.00;;;31.60;37.10;;;;;;5133296;27;20026;-77
2022/07/10 03:36:22;;;;;;;0.00;0.00;;;32.40;36.80;;;;;;5134996;27;20416;-77
2022/07/10 03:38:48;;;;;;;0.08;0.08;;;31.50;37.70;;;;;;5126780;27;20019;-76
2022/07/10 03:41:14;;;;;;;0.00;0.00;;;31.70;36.80;;;;;;5133575;27;20073;-77
2022/07/10 03:43:40;;;;;;;0.00;0.00;;;32.00;36.50;;;;;;5137788;27;20618;-75
2022/07/10 03:46:07;;;;;;;30.80;23.85;;;33.20;35.50;;;;;;5132166;27;20467;-76
2022/07/10 03:48:33;;;;;;;2.30;0.10;;;34.00;34.60;;;;;;5132277;27;20042;-76
2022/07/10 03:51:00;;;;;;;0.00;0.00;;;34.60;34.10;;;;;;5137087;27;20106;-77
2022/07/10 03:53:27;;;;;;;0.00;0.00;;;32.70;34.60;;;;;;5129804;27;20473;-77
2022/07/10 03:55:54;;;;;;;1.30;1.25;;;32.30;36.40;;;;;;5133090;27;20042;-75
2022/07/10 03:58:20;;;;;;;0.00;0.00;;;31.80;37.50;;;;;;5128076;27;20031;-76
2022/07/10 04:00:46;;;;;;;0.00;0.00;;;31.60;38.00;;;;;;5134096;27;20023;-77
2022/07/10 04:03:13;;;;;;;3.17;0.30;;;30.30;39.00;;;;;;5132202;27;20033;-77
2022/07/10 04:05:39;;;;;;;0.00;0.00;;;28.70;41.80;;;;;;5132256;27;20031;-77
2022/07/10 04:08:06;;;;;;;0.20;0.20;;;29.20;41.30;;;;;;5131054;27;20080;-78
2022/07/10 04:10:32;;;;;;;0.60;0.50;;;29.60;40.70;;;;;;5131706;27;20069;-77
2022/07/10 04:12:58;;;;;;;0.50;0.50;;;28.90;41.30;;;;;;5130340;27;20031;-78
2022/07/10 04:15:24;;;;;;;0.00;0.00;;;28.60;41.90;;;;;;5124979;27;20031;-78
2022/07/10 04:17:51;;;;;;;0.00;0.00;;;28.70;41.70;;;;;;5129994;27;20023;-79
2022/07/10 04:20:18;;;;;;;0.00;0.00;;;28.80;41.50;;;;;;5131160;27;20059;-80
2022/07/10 04:22:44;;;;;;;0.00;0.00;;;28.80;40.80;;;;;;5130780;27;20438;-77
2022/07/10 04:25:11;;;;;;;0.00;0.00;;;28.80;40.20;;;;;;5132114;28;20054;-76
2022/07/10 04:27:38;;;;;;;0.00;0.00;;;28.90;40.50;;;;;;5133077;27;20156;-78
2022/07/10 04:30:05;;;;;;;0.00;0.00;;;28.40;41.60;;;;;;5130806;27;20027;-77
2022/07/10 04:32:31;;;;;;;0.00;0.00;;;28.30;41.60;;;;;;5130524;27;20134;-76
2022/07/10 04:34:57;;;;;;;1.13;0.10;;;28.50;41.60;;;;;;5131185;27;20027;-78
2022/07/10 04:37:24;;;;;;;0.00;0.00;;;28.00;42.00;;;;;;5127129;28;20478;-77
2022/07/10 04:39:50;;;;;;;0.00;0.00;;;27.80;42.90;;;;;;5129705;28;20038;-77
2022/07/10 04:42:16;;;;;;;0.00;0.00;;;27.80;41.80;;;;;;5130830;28;20023;-79
2022/07/10 04:44:42;;;;;;;0.00;0.00;;;28.10;41.30;;;;;;5127690;28;20021;-77
2022/07/10 04:47:08;;;;;;;0.65;0.65;;;28.20;39.40;;;;;;5127522;27;20015;-77
2022/07/10 04:49:34;;;;;;;0.00;0.00;;;27.80;40.00;;;;;;5131589;27;20030;-77
2022/07/10 04:52:00;;;;;;;0.00;0.00;;;27.50;39.00;;;;;;5129669;28;20027;-77
2022/07/10 04:54:27;;;;;;;0.00;0.00;;;27.80;40.20;;;;;;5132006;27;20031;-78
2022/07/10 04:56:53;;;;;;;0.00;0.00;;;27.80;40.10;;;;;;5133093;27;20395;-77
2022/07/10 04:59:19;;;;;;;0.00;0.00;;;28.10;38.90;;;;;;5130931;27;20138;-76
2022/07/10 05:01:45;;;;;;;0.00;0.00;;;28.20;38.90;;;;;;5131411;28;20023;-78
2022/07/10 05:04:11;;;;;;;0.00;0.00;;;28.50;40.70;;;;;;5132180;27;20079;-77
2022/07/10 05:06:37;;;;;;;0.00;0.00;;;27.80;40.70;;;;;;5132890;27;20027;-77
2022/07/10 05:09:04;;;;;;;0.00;0.00;;;27.90;39.20;;;;;;5131942;28;20023;-78
2022/07/10 05:11:31;;;;;;;0.00;0.00;;;27.90;40.30;;;;;;5133626;27;20106;-77
2022/07/10 05:13:57;;;;;;;0.00;0.00;;;28.00;41.00;;;;;;5134124;27;20073;-77
2022/07/10 05:16:23;;;;;;;0.03;0.03;;;27.80;41.90;;;;;;5132797;28;20076;-77
2022/07/10 05:18:49;;;;;;;0.10;0.10;;;28.00;41.80;;;;;;5131871;27;20467;-76
2022/07/10 05:21:16;;;;;;;0.10;0.10;;;28.10;41.20;;;;;;5130083;27;20031;-78
2022/07/10 05:23:42;;;;;;;1.83;1.77;;;28.10;41.80;;;;;;5127372;27;20038;-77
2022/07/10 05:26:08;;;;;;;0.00;0.00;;;27.70;41.30;;;;;;5135127;27;20019;-78
2022/07/10 05:28:34;;;;;;;0.00;0.00;;;28.00;38.70;;;;;;5132476;27;20019;-78
2022/07/10 05:31:00;;;;;;;0.00;0.00;;;28.00;39.00;;;;;;5127200;28;20366;-77
2022/07/10 05:33:28;;;;;;;0.00;0.00;;;28.00;39.00;;;;;;5128938;28;20027;-78
2022/07/10 05:35:54;;;;;;;0.00;0.00;;;27.90;38.70;;;;;;5132743;27;20023;-78
2022/07/10 05:38:20;;;;;;;0.05;0.05;;;28.10;37.40;;;;;;5133848;27;20023;-78
2022/07/10 05:40:46;;;;;;;0.00;0.00;;;28.30;38.20;;;;;;5130632;27;20023;-77
2022/07/10 05:43:12;;;;;;;0.00;0.00;;;28.20;39.30;;;;;;5129511;27;20444;-78
2022/07/10 05:45:38;;;;;;;0.00;0.00;;;28.00;39.50;;;;;;5132568;27;20056;-79
2022/07/10 05:48:05;;;;;;;0.00;0.00;;;28.20;40.60;;;;;;5135282;27;20042;-80
2022/07/10 05:50:31;;;;;;;0.00;0.00;;;28.40;39.00;;;;;;5134733;27;20023;-77
2022/07/10 05:52:57;;;;;;;0.00;0.00;;;28.30;37.90;;;;;;5146274;27;20056;-77
2022/07/10 05:55:24;;;;;;;0.00;0.00;;;28.00;38.00;;;;;;5133613;27;20098;-76
2022/07/10 05:57:50;;;;;;;0.43;0.30;;;27.70;40.00;;;;;;5135487;27;20159;-77
2022/07/10 06:00:16;;;;;;;0.00;0.00;;;27.80;38.90;;;;;;5134186;27;20036;-76
2022/07/10 06:02:42;;;;;;;0.00;0.00;;;28.20;39.30;;;;;;5135482;27;20019;-78
2022/07/10 06:05:09;;;;;;;1.02;0.10;;;28.20;41.10;;;;;;5134434;27;20374;-76
2022/07/10 06:07:35;;;;;;;0.00;0.00;;;27.80;41.20;;;;;;5134881;27;20019;-75
2022/07/10 06:10:05;;;;;;;0.10;0.10;;;27.80;41.30;;;;;;5134959;27;20024;-76
2022/07/10 06:12:32;;;;;;;0.40;0.38;;;28.00;41.60;;;;;;5130382;27;20409;-75
2022/07/10 06:14:58;;;;;;;0.75;0.45;;;28.10;40.10;;;;;;5131534;27;20023;-77
2022/07/10 06:17:24;;;;;;;1.27;0.35;;;28.20;39.50;;;;;;5128980;27;20038;-75
2022/07/10 06:19:50;;;;;;;1.17;0.55;;;28.20;39.30;;;;;;5132706;27;20027;-76
2022/07/10 06:22:31;;;;;;;0.28;0.28;;;28.30;39.60;;;;;;5131880;27;20496;-77
2022/07/10 06:24:59;;;;;;;0.00;0.00;;;28.10;39.50;;;;;;5128008;27;20030;-76
2022/07/10 06:27:25;;;;;;;0.20;0.10;;;27.50;39.50;;;;;;5131255;27;20026;-75
2022/07/10 06:29:51;;;;;;;0.55;0.45;;;27.60;39.30;;;;;;5133641;27;20027;-76
2022/07/10 06:32:17;;;;;;;4.93;4.00;;;27.70;37.90;;;;;;5135043;27;20016;-76
2022/07/10 06:34:43;;;;;;;0.10;0.10;;;27.80;37.20;;;;;;5132637;27;20110;-75
2022/07/10 06:37:09;;;;;;;0.00;0.00;;;28.20;36.10;;;;;;5132952;27;20050;-76
2022/07/10 06:39:35;;;;;;;0.00;0.00;;;27.90;35.50;;;;;;5132328;27;20023;-75
2022/07/10 06:42:06;;;;;;;0.52;0.43;;;27.90;37.00;;;;;;5135230;27;20060;-74
2022/07/10 06:44:33;;;;;;;0.00;0.00;;;27.90;35.70;;;;;;5135716;27;20395;-74
2022/07/10 06:49:45;;;;;;;0.00;0.00;;;28.00;37.90;;;;;;5135416;27;20062;-77
2022/07/10 06:52:12;;;;;;;0.03;0.03;;;27.80;38.40;;;;;;5139480;27;20512;-74
2022/07/10 06:54:39;;;;;;;9.20;7.90;;;28.30;38.50;;;;;;5135293;27;20067;-76
2022/07/10 06:57:05;;;;;;;0.00;0.00;;;28.50;37.90;;;;;;5133091;27;20360;-75
2022/07/10 06:59:31;;;;;;;0.00;0.00;;;28.70;37.70;;;;;;5134758;27;20039;-77
2022/07/10 07:01:57;;;;;;;1.45;1.35;;;29.00;37.60;;;;;;5132843;27;20023;-76
2022/07/10 07:04:23;;;;;;;0.08;0.08;;;28.80;38.20;;;;;;5132784;27;20475;-75
2022/07/10 07:06:49;;;;;;;0.40;0.40;;;28.50;39.40;;;;;;5131551;27;20027;-76
2022/07/10 07:09:15;;;;;;;15.00;13.65;;;28.50;39.00;;;;;;5137153;27;20011;-76
2022/07/10 07:11:41;;;;;;;0.00;0.00;;;28.70;38.90;;;;;;5131686;27;20144;-76
2022/07/10 07:14:07;;;;;;;1.15;0.90;;;28.70;38.80;;;;;;5130971;27;20038;-76
2022/07/10 07:16:42;;;;;;;0.00;0.00;;;28.40;38.20;;;;;;5139092;27;20043;-75
2022/07/10 07:19:17;;;;;;;0.25;0.00;;;28.20;38.10;;;;;;5129590;27;20030;-75
2022/07/10 07:24:28;;;;;;;0.20;0.20;;;28.30;40.20;;;;;;5133574;27;20038;-76
2022/07/10 07:26:55;;;;;;;0.00;0.00;;;28.30;39.30;;;;;;5134476;27;20024;-76
2022/07/10 07:29:21;;;;;;;0.52;0.15;;;28.40;39.60;;;;;;5132905;27;20068;-76
2022/07/10 07:31:47;;;;;;;0.10;0.00;;;28.40;39.60;;;;;;5131838;27;20111;-77
2022/07/10 07:34:13;;;;;;;0.52;0.52;;;28.70;40.30;;;;;;5129979;27;20030;-75
2022/07/10 07:36:39;;;;;;;0.00;0.00;;;28.80;38.20;;;;;;5134065;27;20520;-75
2022/07/10 07:39:05;;;;;;;0.00;0.00;;;28.90;38.40;;;;;;5134320;27;20020;-76
2022/07/10 07:41:31;;;;;;;0.00;0.00;;;29.20;38.40;;;;;;5132921;27;20096;-76
2022/07/10 07:43:57;;;;;;;0.00;0.00;;;29.40;36.40;;;;;;5132080;27;20019;-75
2022/07/10 07:46:24;;;;;;;0.13;0.13;;;28.80;36.20;;;;;;5131374;27;20023;-74
2022/07/10 07:48:50;;;;;;;0.10;0.10;;;28.80;36.80;;;;;;5129690;27;20348;-75
2022/07/10 07:51:17;;;;;;;0.38;0.17;;;29.10;36.40;;;;;;5129992;27;20090;-76
2022/07/10 07:53:43;;;;;;;0.00;0.00;;;28.80;37.00;;;;;;5130603;27;20031;-75
2022/07/10 07:56:09;;;;;;;1.02;0.30;;;28.80;38.00;;;;;;5134707;27;20440;-75
2022/07/10 07:58:35;;;;;;;0.00;0.00;;;29.30;36.90;;;;;;5130233;27;20085;-74
2022/07/10 08:01:02;;;;;;;0.10;0.10;;;29.20;37.30;;;;;;5130929;27;20403;-74
2022/07/10 08:03:28;;;;;;;0.30;0.30;;;29.30;36.30;;;;;;5129245;27;20490;-75
2022/07/10 08:05:54;;;;;;;0.50;0.20;;;29.20;36.50;;;;;;5129801;27;20068;-76
2022/07/10 08:08:20;;;;;;;0.00;0.00;;;29.40;36.10;;;;;;5128898;27;20027;-74
2022/07/10 08:10:46;;;;;;;0.00;0.00;;;28.70;36.90;;;;;;5131737;27;20027;-76
2022/07/10 08:13:13;;;;;;;0.00;0.00;;;29.00;36.20;;;;;;5125703;27;20034;-76
2022/07/10 08:15:39;;;;;;;0.03;0.03;;;29.50;35.90;;;;;;5131479;27;20035;-75
2022/07/10 08:18:05;;;;;;;0.00;0.00;;;29.30;36.80;;;;;;5128342;27;20030;-76
2022/07/10 08:20:31;;;;;;;0.00;0.00;;;29.10;36.60;;;;;;5133410;27;20110;-75
2022/07/10 08:22:57;;;;;;;0.00;0.00;;;29.20;36.50;;;;;;5133903;28;20056;-75
2022/07/10 08:25:24;;;;;;;0.00;0.00;;;29.20;37.30;;;;;;5133921;27;20076;-76
2022/07/10 08:27:50;;;;;;;0.00;0.00;;;29.90;37.40;;;;;;5130743;28;20053;-75
2022/07/10 08:30:16;;;;;;;0.00;0.00;;;30.00;36.50;;;;;;5130387;28;20079;-74
2022/07/10 08:32:43;;;;;;;0.00;0.00;;;29.60;37.10;;;;;;5132003;27;20023;-76
2022/07/10 08:35:10;;;;;;;0.00;0.00;;;29.30;37.30;;;;;;5128298;28;20020;-75
2022/07/10 08:37:44;;;;;;;0.00;0.00;;;29.40;37.60;;;;;;5133538;28;20031;-74
2022/07/10 08:40:14;;;;;;;0.00;0.00;;;29.30;37.50;;;;;;5132856;28;20031;-76
2022/07/10 08:42:43;;;;;;;0.00;0.00;;;29.40;37.70;;;;;;5131780;28;20356;-75
2022/07/10 08:45:11;;;;;;;0.32;0.32;;;29.80;37.10;;;;;;5132543;28;20065;-76
2022/07/10 08:47:41;;;;;;;0.13;0.00;;;30.00;37.50;;;;;;5133148;28;20478;-76
2022/07/10 08:50:28;;;;;;;0.00;0.00;;;29.80;37.10;;;;;;5130661;27;20031;-77
2022/07/10 08:53:04;;;;;;;0.00;0.00;;;29.60;36.80;;;;;;5127518;28;20052;-78
2022/07/10 08:55:30;;;;;;;0.65;0.57;;;30.00;37.60;;;;;;5134166;27;20073;-77
2022/07/10 08:57:58;;;;;;;0.00;0.00;;;30.20;37.00;;;;;;5132752;27;20035;-77
2022/07/10 09:00:25;;;;;;;10.60;0.20;;;30.30;37.90;;;;;;5129892;27;20072;-77
2022/07/10 09:02:53;;;;;;;0.00;0.00;;;30.70;36.70;;;;;;5130017;27;20034;-79
2022/07/10 09:05:19;;;;;;;0.10;0.10;;;30.50;35.60;;;;;;5130504;27;20015;-77
2022/07/10 09:07:45;;;;;;;0.00;0.00;;;30.60;36.70;;;;;;5133391;27;20391;-78
2022/07/10 09:10:12;;;;;;;0.10;0.10;;;30.10;35.70;;;;;;5131469;27;20019;-78
2022/07/10 09:12:52;;;;;;;0.00;0.00;;;29.70;36.70;;;;;;5132870;27;20029;-77
2022/07/10 09:15:19;;;;;;;1.40;1.33;;;29.80;36.90;;;;;;5132519;27;20054;-77
2022/07/10 09:17:54;;;;;;;0.00;0.00;;;29.70;37.10;;;;;;5131408;27;20038;-77
2022/07/10 09:20:31;;;;;;;0.00;0.00;;;30.00;37.50;;;;;;5135456;27;20056;-76
2022/07/10 09:23:09;;;;;;;0.00;0.00;;;30.30;35.20;;;;;;5132862;27;20027;-77
2022/07/10 09:25:36;;;;;;;0.00;0.00;;;30.10;35.20;;;;;;5137690;27;20030;-77
2022/07/10 09:28:05;;;;;;;0.00;0.00;;;30.30;35.60;;;;;;5135773;27;20023;-77
2022/07/10 09:30:39;;;;;;;0.00;0.00;;;30.70;36.60;;;;;;5132486;27;20036;-78
2022/07/10 09:33:19;;;;;;;0.20;0.20;;;30.90;35.60;;;;;;5134904;27;20027;-77
2022/07/10 09:38:45;;;;;;;0.10;0.10;;;29.80;36.90;;;;;;5135978;27;20023;-76
2022/07/10 09:41:30;;;;;;;0.00;0.00;;;29.70;36.70;;;;;;5136096;27;20068;-78
2022/07/10 09:44:02;;;;;;;0.00;0.00;;;30.20;37.00;;;;;;5138206;27;20030;-76
2022/07/10 09:46:35;;;;;;;0.00;0.00;;;30.50;36.80;;;;;;5135393;27;20039;-76
2022/07/10 09:49:03;;;;;;;0.00;0.00;;;30.80;35.60;;;;;;5135475;27;20019;-76
2022/07/10 09:51:39;;;;;;;0.47;0.47;;;31.00;34.80;;;;;;5142017;27;20087;-77
2022/07/10 09:54:08;;;;;;;0.00;0.00;;;31.20;35.20;;;;;;5138915;27;20441;-77
2022/07/10 09:56:43;;;;;;;0.00;0.00;;;31.00;35.10;;;;;;5133919;27;20031;-77
2022/07/10 09:59:12;;;;;;;0.00;0.00;;;30.80;35.50;;;;;;5136551;27;20379;-77
2022/07/10 10:01:42;;;;;;;0.00;0.00;;;30.80;36.00;;;;;;5134097;27;20045;-76
2022/07/10 10:04:10;;;;;;;0.00;0.00;;;30.20;36.20;;;;;;5124306;27;20698;-77
2022/07/10 10:06:38;;;;;;;0.00;0.00;;;30.30;36.20;;;;;;5134987;27;20903;-77
2022/07/10 10:09:08;;;;;;;0.00;0.00;;;30.40;36.60;;;;;;5134537;27;20021;-76
2022/07/10 10:11:37;;;;;;;0.00;0.00;;;30.50;36.10;;;;;;5133820;27;20031;-76
2022/07/10 10:14:06;;;;;;;0.03;0.03;;;30.30;36.50;;;;;;5131342;27;20030;-77
2022/07/10 10:16:33;;;;;;;0.00;0.00;;;30.20;36.40;;;;;;5138200;27;20023;-77
2022/07/10 10:21:47;;;;;;;0.00;0.00;;;30.20;37.50;;;;;;5135216;27;20061;-77
2022/07/10 10:24:14;;;;;;;1.00;0.85;;;30.00;36.80;;;;;;5135870;27;20052;-76
2022/07/10 10:26:41;;;;;;;0.00;0.00;;;29.70;37.40;;;;;;5132787;27;20413;-76
2022/07/10 10:29:09;;;;;;;0.00;0.00;;;29.70;36.50;;;;;;5133459;27;20018;-76
2022/07/10 10:31:35;;;;;;;0.00;0.00;;;29.90;37.30;;;;;;5130258;27;20456;-78
2022/07/10 10:34:01;;;;;;;0.00;0.00;;;29.80;37.30;;;;;;5131168;27;20023;-77
2022/07/10 10:36:47;;;;;;;0.00;0.00;;;29.80;37.50;;;;;;5132661;27;20107;-76
2022/07/10 10:39:20;;;;;;;0.00;0.00;;;30.10;37.10;;;;;;5124549;27;20069;-76
2022/07/10 10:41:54;;;;;;;0.00;0.00;;;30.00;36.90;;;;;;5127097;27;20062;-77
2022/07/10 10:44:21;;;;;;;0.00;0.00;;;30.00;37.20;;;;;;5129775;27;20066;-76
2022/07/10 10:46:53;;;;;;;0.08;0.08;;;30.20;36.80;;;;;;5121382;27;20019;-77
2022/07/10 10:49:21;;;;;;;0.00;0.00;;;30.10;36.80;;;;;;5135623;27;20036;-78
2022/07/10 10:52:10;;;;;;;0.00;0.00;;;29.70;38.10;;;;;;5133618;27;20371;-77
2022/07/10 10:54:55;;;;;;;0.00;0.00;;;29.80;37.50;;;;;;5132494;27;20051;-76
2022/07/10 10:57:22;;;;;;;0.00;0.00;;;29.90;36.80;;;;;;5132526;27;20031;-76
2022/07/10 10:59:50;;;;;;;0.00;0.00;;;29.70;37.60;;;;;;5133894;27;20401;-77
2022/07/10 11:02:25;;;;;;;0.00;0.00;;;29.70;38.10;;;;;;5131805;27;20038;-77
2022/07/10 11:04:52;;;;;;;0.10;0.10;;;29.80;37.20;;;;;;5131737;27;20023;-76
2022/07/10 11:07:59;;;;;;;0.00;0.00;;;30.00;37.70;;;;;;5115602;27;21536;-76
2022/07/10 11:10:32;;;;;;;0.00;0.00;;;30.10;36.90;;;;;;5107898;27;20043;-77
2022/07/10 11:13:00;;;;;;;0.00;0.00;;;30.00;36.80;;;;;;5133339;27;20538;-77
2022/07/10 11:15:29;;;;;;;0.00;0.00;;;30.00;37.30;;;;;;5133162;27;20479;-76
2022/07/10 11:17:57;;;;;;;0.00;0.00;;;30.10;36.60;;;;;;5129313;27;20384;-76
2022/07/10 11:20:24;;;;;;;0.00;0.00;;;30.20;35.90;;;;;;5129334;27;20391;-76
2022/07/10 11:23:17;;;;;;;0.00;0.00;;;29.80;36.50;;;;;;5132014;27;20401;-78
2022/07/10 11:26:01;;;;;;;0.00;0.00;;;29.50;37.20;;;;;;5131834;27;20068;-77
2022/07/10 11:28:52;;;;;;;0.00;0.00;;;29.40;38.10;;;;;;5131671;27;20030;-77
2022/07/10 11:31:19;;;;;;;0.20;0.20;;;29.80;37.10;;;;;;5132292;27;20023;-75
2022/07/10 11:33:48;;;;;;;0.00;0.00;;;30.00;36.80;;;;;;5133314;27;20114;-77
2022/07/10 11:36:31;;;;;;;0.00;0.00;;;30.10;36.90;;;;;;5131250;27;20118;-76
2022/07/10 11:39:04;;;;;;;0.00;0.00;;;29.60;37.00;;;;;;5136061;27;20019;-79
2022/07/10 11:41:30;;;;;;;0.00;0.00;;;30.00;37.20;;;;;;5132473;27;20059;-79
2022/07/10 11:43:58;;;;;;;0.00;0.00;;;29.80;37.10;;;;;;5114977;27;20035;-76
2022/07/10 11:46:27;;;;;;;0.00;0.00;;;30.00;37.00;;;;;;5135247;27;20031;-77
2022/07/10 11:48:54;;;;;;;0.10;0.10;;;30.10;36.90;;;;;;5133088;27;20293;-81
2022/07/10 11:51:24;;;;;;;0.00;0.00;;;29.70;37.10;;;;;;5134744;27;20479;-79
2022/07/10 11:54:02;;;;;;;0.00;0.00;;;29.80;38.20;;;;;;5135593;27;20042;-78
2022/07/10 11:56:32;;;;;;;0.00;0.00;;;29.60;38.50;;;;;;5133781;27;20483;-78
2022/07/10 11:59:08;;;;;;;0.40;0.38;;;29.90;38.10;;;;;;5134261;27;20058;-77
2022/07/10 12:01:44;;;;;;;0.00;0.00;;;29.70;37.90;;;;;;5131435;27;20073;-78
2022/07/10 12:04:14;;;;;;;0.00;0.00;;;29.40;37.70;;;;;;5132814;27;20050;-78
2022/07/10 12:06:45;;;;;;;0.00;0.00;;;29.50;37.30;;;;;;5132064;27;20076;-77
2022/07/10 12:09:15;;;;;;;0.00;0.00;;;29.30;37.90;;;;;;5131879;27;20027;-76
2022/07/10 12:11:43;;;;;;;0.00;0.00;;;29.30;37.90;;;;;;5132757;27;20031;-77
2022/07/10 12:14:16;;;;;;;0.00;0.00;;;29.50;37.80;;;;;;5130623;27;20374;-77
2022/07/10 12:16:44;;;;;;;0.00;0.00;;;29.40;38.40;;;;;;5128773;27;20200;-76
2022/07/10 12:19:15;;;;;;;0.00;0.00;;;29.60;38.70;;;;;;5131652;27;20421;-76
2022/07/10 12:21:47;;;;;;;0.00;0.00;;;29.40;37.90;;;;;;5126231;27;20063;-77
2022/07/10 12:24:16;;;;;;;0.50;0.50;;;29.40;37.70;;;;;;5132470;27;20027;-75
2022/07/10 12:26:43;;;;;;;0.00;0.00;;;29.60;37.50;;;;;;5132318;28;20032;-78
2022/07/10 12:29:23;;;;;;;0.00;0.00;;;29.60;36.90;;;;;;5116276;27;20143;-76
2022/07/10 12:31:51;;;;;;;0.10;0.10;;;29.70;36.60;;;;;;5133459;27;20535;-77
2022/07/10 12:34:18;;;;;;;0.00;0.00;;;29.60;36.20;;;;;;5133583;28;20027;-77
2022/07/10 12:36:47;;;;;;;0.00;0.00;;;29.20;37.10;;;;;;5135032;27;20023;-77
2022/07/10 12:39:21;;;;;;;0.00;0.00;;;29.20;37.00;;;;;;5135422;27;20107;-78
2022/07/10 12:42:01;;;;;;;0.00;0.00;;;29.20;36.90;;;;;;5139196;27;20110;-77
2022/07/10 12:44:33;;;;;;;0.00;0.00;;;29.20;36.60;;;;;;5129336;27;20027;-76
2022/07/10 12:47:04;;;;;;;0.00;0.00;;;29.10;36.80;;;;;;5135778;27;20366;-77
2022/07/10 12:49:30;;;;;;;0.00;0.00;;;29.20;36.90;;;;;;5136554;27;20432;-77
2022/07/10 12:51:56;;;;;;;0.20;0.20;;;29.10;36.50;;;;;;5136579;27;20030;-77
2022/07/10 12:54:38;;;;;;;0.00;0.00;;;29.10;36.80;;;;;;5136869;27;20421;-77
2022/07/10 12:57:05;;;;;;;0.00;0.00;;;29.10;36.90;;;;;;5137389;27;20037;-77
2022/07/10 12:59:36;;;;;;;0.00;0.00;;;29.10;37.10;;;;;;5133333;27;20077;-76
2022/07/10 13:02:19;;;;;;;0.00;0.00;;;28.90;37.00;;;;;;5123906;27;20035;-78
2022/07/10 13:04:55;;;;;;;0.00;0.00;;;29.10;37.50;;;;;;5136469;27;20011;-77